Time;durP1;ratioP1;P1;durP2;ratioP2;P2;SDS_P1;SDS_P2;PMS_P1;PMS_P2;Temp;Humidity;BMP_temperature;BMP_pressure;BME280_temperature;BME280_humidity;BME280_pressure;Samples;Min_cycle;Max_cycle;Signal;HPM_P1;HPM_P2
2022/04/10 00:01:10;;;;;;;7.20;4.03;;;7.60;38.20;;;;;;5076178;28;20170;-90
2022/04/10 00:03:36;;;;;;;8.17;4.97;;;7.70;36.30;;;;;;5076765;28;20210;-83
2022/04/10 00:06:02;;;;;;;5.97;4.37;;;7.60;35.90;;;;;;5077384;28;20222;-87
2022/04/10 00:08:27;;;;;;;7.70;4.70;;;7.70;33.80;;;;;;5078050;28;20623;-89
2022/04/10 00:10:54;;;;;;;6.63;4.70;;;7.40;36.90;;;;;;5075046;28;20220;-89
2022/04/10 00:13:19;;;;;;;6.00;4.37;;;7.30;42.90;;;;;;5075483;28;20219;-76
2022/04/10 00:15:45;;;;;;;7.33;5.00;;;7.20;45.90;;;;;;5075115;28;20651;-88
2022/04/10 00:18:12;;;;;;;7.23;4.83;;;7.30;46.50;;;;;;5072397;28;20198;-82
2022/04/10 00:20:37;;;;;;;6.17;4.90;;;7.40;45.80;;;;;;5057712;28;20613;-89
2022/04/10 00:23:04;;;;;;;6.57;4.67;;;7.50;44.60;;;;;;5056986;28;20244;-86
2022/04/10 00:25:29;;;;;;;7.83;5.07;;;7.30;44.90;;;;;;5054641;28;20223;-90
2022/04/10 00:27:55;;;;;;;6.83;4.83;;;7.20;46.80;;;;;;5055218;28;20169;-88
2022/04/10 00:30:21;;;;;;;5.57;4.53;;;7.30;46.90;;;;;;5055934;28;20181;-88
2022/04/10 00:32:46;;;;;;;6.20;4.87;;;7.40;44.20;;;;;;5056042;28;20252;-87
2022/04/10 00:35:13;;;;;;;6.07;4.43;;;7.40;42.20;;;;;;5056166;28;20169;-80
2022/04/10 00:37:39;;;;;;;6.63;4.40;;;7.30;43.10;;;;;;5054655;28;20172;-79
2022/04/10 00:40:07;;;;;;;5.70;4.30;;;7.20;44.90;;;;;;5054451;28;20191;-81
2022/04/10 00:42:40;;;;;;;5.43;4.30;;;7.10;44.70;;;;;;5054193;28;20184;-88
2022/04/10 00:45:07;;;;;;;7.53;4.87;;;7.00;47.50;;;;;;5036846;28;20185;-89
2022/04/10 00:47:33;;;;;;;6.63;5.00;;;7.20;47.80;;;;;;5055577;28;20169;-87
2022/04/10 00:50:02;;;;;;;5.37;4.50;;;7.30;45.20;;;;;;5054912;28;20179;-78
2022/04/10 00:52:30;;;;;;;6.17;4.37;;;7.40;42.90;;;;;;5057883;28;20551;-83
2022/04/10 00:54:56;;;;;;;5.90;4.63;;;7.40;43.40;;;;;;5055202;28;20165;-84
2022/04/10 00:57:23;;;;;;;6.70;3.93;;;7.30;42.40;;;;;;5054391;28;20256;-84
2022/04/10 00:59:49;;;;;;;6.93;4.87;;;7.30;41.30;;;;;;5054343;28;20177;-84
2022/04/10 01:02:15;;;;;;;7.77;5.10;;;7.40;40.80;;;;;;5054231;28;20637;-81
2022/04/10 01:04:41;;;;;;;6.07;4.20;;;7.50;38.80;;;;;;5054234;28;20165;-78
2022/04/10 01:07:07;;;;;;;9.37;4.97;;;7.40;37.50;;;;;;5052504;28;20664;-85
2022/04/10 01:09:40;;;;;;;8.63;5.17;;;7.40;37.40;;;;;;5062544;28;20251;-87
2022/04/10 01:12:07;;;;;;;9.60;4.57;;;7.10;42.30;;;;;;5054411;28;20157;-83
2022/04/10 01:14:33;;;;;;;7.90;4.43;;;6.90;44.30;;;;;;5054890;28;20232;-87
2022/04/10 01:17:01;;;;;;;7.10;5.17;;;7.00;46.30;;;;;;5054840;28;20736;-85
2022/04/10 01:19:27;;;;;;;7.87;4.53;;;6.90;46.80;;;;;;5043854;28;20177;-81
2022/04/10 01:21:57;;;;;;;6.93;5.13;;;6.90;48.40;;;;;;5053962;28;20173;-85
2022/04/10 01:24:23;;;;;;;8.93;4.97;;;6.90;49.40;;;;;;5054023;28;20179;-85
2022/04/10 01:26:49;;;;;;;7.07;4.63;;;6.90;49.40;;;;;;5053533;28;20292;-79
2022/04/10 01:29:15;;;;;;;7.63;4.83;;;7.00;48.90;;;;;;5054881;28;20518;-78
2022/04/10 01:31:45;;;;;;;6.53;4.67;;;6.90;49.90;;;;;;5067093;28;20904;-77
2022/04/10 01:34:13;;;;;;;8.07;4.93;;;6.80;50.70;;;;;;5057559;28;20617;-88
2022/04/10 01:36:41;;;;;;;9.50;4.90;;;7.00;48.90;;;;;;5054767;28;20165;-89
2022/04/10 01:39:09;;;;;;;7.77;4.70;;;6.90;47.80;;;;;;5054229;28;20181;-87
2022/04/10 01:41:35;;;;;;;8.37;5.17;;;6.80;49.10;;;;;;5041741;28;20181;-90
2022/04/10 01:44:02;;;;;;;9.40;4.97;;;6.70;50.70;;;;;;5064009;28;20177;-78
2022/04/10 01:46:29;;;;;;;8.73;5.40;;;6.60;51.30;;;;;;5067991;28;20270;-77
2022/04/10 01:48:56;;;;;;;8.00;5.20;;;6.70;52.50;;;;;;5069054;28;20560;-78
2022/04/10 01:51:24;;;;;;;9.47;5.63;;;6.70;51.40;;;;;;5060614;28;20172;-86
2022/04/10 01:53:50;;;;;;;8.50;5.50;;;6.70;51.80;;;;;;5057772;28;20621;-77
2022/04/10 01:56:16;;;;;;;7.50;5.17;;;6.60;52.30;;;;;;5058267;28;20169;-89
2022/04/10 01:58:44;;;;;;;8.00;5.40;;;6.70;51.40;;;;;;5060509;28;20645;-83
2022/04/10 02:01:11;;;;;;;8.33;5.67;;;6.60;50.90;;;;;;5069397;28;20156;-88
2022/04/10 02:03:38;;;;;;;9.13;5.20;;;6.60;52.20;;;;;;5073790;28;20236;-79
2022/04/10 02:06:06;;;;;;;9.03;6.10;;;6.70;52.50;;;;;;5056119;28;20227;-82
2022/04/10 02:08:35;;;;;;;9.53;5.80;;;6.40;53.70;;;;;;5068844;28;20514;-81
2022/04/10 02:11:20;;;;;;;8.23;5.70;;;6.50;54.20;;;;;;5061888;28;20660;-89
2022/04/10 02:13:47;;;;;;;9.60;6.10;;;6.50;53.70;;;;;;5058388;28;20192;-80
2022/04/10 02:16:17;;;;;;;9.33;6.23;;;6.60;53.40;;;;;;5065060;28;20192;-79
2022/04/10 02:18:43;;;;;;;9.63;6.10;;;6.70;52.40;;;;;;5047339;28;20196;-78
2022/04/10 02:21:10;;;;;;;10.77;6.00;;;6.90;48.60;;;;;;5067033;28;20173;-81
2022/04/10 02:23:36;;;;;;;10.13;6.23;;;6.90;46.50;;;;;;5044163;28;20175;-83
2022/04/10 02:26:03;;;;;;;7.83;5.63;;;6.80;47.20;;;;;;5057640;28;20210;-84
2022/04/10 02:28:29;;;;;;;9.83;6.23;;;6.60;49.20;;;;;;5063276;28;20169;-81
2022/04/10 02:31:01;;;;;;;10.50;5.97;;;6.60;51.50;;;;;;5072562;28;20185;-78
2022/04/10 02:33:28;;;;;;;11.07;6.67;;;6.60;52.80;;;;;;5057295;28;20157;-87
2022/04/10 02:35:54;;;;;;;11.13;6.13;;;6.60;52.60;;;;;;5056985;28;20185;-88
2022/04/10 02:38:19;;;;;;;10.83;5.90;;;6.70;52.10;;;;;;5066055;28;20652;-80
2022/04/10 02:40:45;;;;;;;8.93;5.80;;;6.50;52.50;;;;;;5052842;28;20223;-84
2022/04/10 02:43:13;;;;;;;13.60;6.70;;;6.40;54.50;;;;;;5065573;28;20183;-84
2022/04/10 02:45:40;;;;;;;9.70;5.83;;;6.50;55.20;;;;;;5064010;28;20266;-79
2022/04/10 02:48:08;;;;;;;10.03;6.30;;;6.40;56.30;;;;;;5062879;28;20641;-80
2022/04/10 02:50:34;;;;;;;8.17;5.40;;;6.40;55.80;;;;;;5053373;28;20176;-88
2022/04/10 02:52:59;;;;;;;9.97;6.70;;;6.40;55.40;;;;;;5076718;28;20620;-88
2022/04/10 02:55:26;;;;;;;9.53;6.70;;;6.30;56.90;;;;;;5076549;28;20200;-84
2022/04/10 02:57:52;;;;;;;10.93;6.60;;;6.40;58.40;;;;;;5076749;28;20168;-88
2022/04/10 03:00:18;;;;;;;11.33;6.70;;;6.30;58.10;;;;;;5075293;28;20173;-88
2022/04/10 03:02:43;;;;;;;10.63;6.40;;;6.30;58.30;;;;;;5077078;28;20176;-76
2022/04/10 03:05:09;;;;;;;10.10;6.47;;;6.30;58.90;;;;;;5076714;28;20172;-85
2022/04/10 03:07:35;;;;;;;8.77;5.63;;;6.30;58.80;;;;;;5077711;28;20176;-87
2022/04/10 03:10:02;;;;;;;8.40;6.10;;;6.30;59.40;;;;;;5077941;28;20167;-89
2022/04/10 03:12:27;;;;;;;11.43;6.10;;;6.20;59.60;;;;;;5082320;28;20621;-80
2022/04/10 03:14:53;;;;;;;8.47;6.10;;;6.20;60.10;;;;;;5081879;28;20203;-87
2022/04/10 03:17:18;;;;;;;9.83;5.90;;;6.20;60.20;;;;;;5075940;28;20168;-87
2022/04/10 03:19:44;;;;;;;7.87;5.70;;;6.30;59.20;;;;;;5075919;28;20242;-89
2022/04/10 03:22:10;;;;;;;8.70;6.00;;;6.20;60.30;;;;;;5075949;28;20251;-89
2022/04/10 03:24:35;;;;;;;11.13;6.00;;;6.10;60.90;;;;;;5076030;28;20567;-88
2022/04/10 03:27:01;;;;;;;10.77;6.77;;;6.00;61.90;;;;;;5077949;28;20196;-87
2022/04/10 03:29:27;;;;;;;10.17;6.20;;;6.00;64.10;;;;;;5081365;28;20192;-83
2022/04/10 03:31:52;;;;;;;12.30;6.47;;;6.20;64.60;;;;;;5088964;28;20211;-79
2022/04/10 03:34:21;;;;;;;11.97;6.63;;;6.00;63.10;;;;;;5083106;28;20164;-88
2022/04/10 03:36:53;;;;;;;11.00;6.10;;;6.00;63.90;;;;;;5076279;28;20167;-85
2022/04/10 03:39:19;;;;;;;9.93;6.60;;;5.90;63.90;;;;;;5080329;28;20225;-78
2022/04/10 03:41:44;;;;;;;11.27;7.20;;;5.90;65.80;;;;;;5087869;28;20223;-85
2022/04/10 03:44:11;;;;;;;11.17;5.93;;;5.90;64.70;;;;;;5089107;28;20224;-79
2022/04/10 03:46:37;;;;;;;9.07;6.40;;;5.80;66.60;;;;;;5089936;28;20208;-78
2022/04/10 03:49:23;;;;;;;11.60;6.87;;;5.70;69.30;;;;;;5083306;28;20244;-79
2022/04/10 03:51:49;;;;;;;11.33;6.67;;;5.70;71.80;;;;;;5074339;28;20613;-83
2022/04/10 03:54:43;;;;;;;10.87;6.43;;;5.60;71.80;;;;;;5058094;28;20173;-88
2022/04/10 03:57:09;;;;;;;11.73;7.50;;;5.70;72.90;;;;;;5055547;28;20165;-90
2022/04/10 03:59:35;;;;;;;8.83;6.43;;;5.70;73.20;;;;;;5056724;28;20227;-87
2022/04/10 04:02:00;;;;;;;12.53;6.20;;;5.80;72.20;;;;;;5055506;28;20172;-80
2022/04/10 04:04:26;;;;;;;13.00;6.43;;;5.70;72.40;;;;;;5056361;28;20625;-76
2022/04/10 04:06:52;;;;;;;11.30;6.53;;;5.80;71.90;;;;;;5055566;28;20217;-89
2022/04/10 04:09:17;;;;;;;15.30;7.10;;;5.80;71.60;;;;;;5055875;28;20165;-83
2022/04/10 04:11:43;;;;;;;12.47;7.27;;;5.80;70.80;;;;;;5056827;28;20251;-82
2022/04/10 04:14:09;;;;;;;9.17;6.53;;;5.80;70.70;;;;;;5055106;28;20212;-90
2022/04/10 04:16:34;;;;;;;7.83;6.47;;;5.60;71.20;;;;;;5054362;28;20166;-88
2022/04/10 04:19:00;;;;;;;14.63;6.40;;;5.80;71.90;;;;;;5055440;28;20169;-87
2022/04/10 04:21:27;;;;;;;8.80;6.70;;;5.90;70.20;;;;;;5055387;28;20264;-88
2022/04/10 04:23:52;;;;;;;10.37;6.90;;;5.80;68.30;;;;;;5054643;28;20538;-87
2022/04/10 04:26:18;;;;;;;11.83;6.10;;;5.60;69.90;;;;;;5055159;28;20201;-86
2022/04/10 04:28:44;;;;;;;11.23;6.90;;;5.60;72.60;;;;;;5057422;28;20229;-76
2022/04/10 04:31:09;;;;;;;12.73;7.00;;;5.50;72.80;;;;;;5059907;28;20196;-89
2022/04/10 04:33:37;;;;;;;8.90;6.57;;;5.40;74.80;;;;;;5061607;28;20164;-89
2022/04/10 04:36:03;;;;;;;12.83;7.40;;;5.50;77.20;;;;;;5069787;28;20172;-78
2022/04/10 04:38:29;;;;;;;12.90;7.40;;;5.20;78.60;;;;;;5071300;28;20219;-77
2022/04/10 04:40:54;;;;;;;12.17;6.83;;;5.20;79.90;;;;;;5067982;28;20157;-85
2022/04/10 04:43:21;;;;;;;11.10;7.67;;;5.20;80.30;;;;;;5059385;28;20185;-79
2022/04/10 04:45:46;;;;;;;11.93;6.87;;;5.20;81.00;;;;;;5058363;28;20207;-82
2022/04/10 04:48:12;;;;;;;10.97;7.13;;;5.40;80.70;;;;;;5062099;28;20173;-82
2022/04/10 04:50:37;;;;;;;10.97;7.07;;;5.40;79.10;;;;;;5071410;28;20211;-84
2022/04/10 04:53:03;;;;;;;13.57;7.57;;;5.40;77.70;;;;;;5080129;28;20647;-88
2022/04/10 04:55:29;;;;;;;12.07;7.30;;;5.50;76.80;;;;;;5075742;28;20164;-86
2022/04/10 04:57:55;;;;;;;12.93;7.50;;;5.40;76.10;;;;;;5074625;28;20225;-88
2022/04/10 05:00:21;;;;;;;11.93;6.87;;;5.40;76.90;;;;;;5076679;28;20621;-85
2022/04/10 05:02:46;;;;;;;11.07;6.97;;;5.40;76.30;;;;;;5074698;28;20199;-89
2022/04/10 05:05:12;;;;;;;11.83;8.10;;;5.30;77.20;;;;;;5074574;28;20168;-82
2022/04/10 05:07:37;;;;;;;11.87;6.87;;;5.20;79.30;;;;;;5074979;28;20168;-88
2022/04/10 05:10:04;;;;;;;11.00;6.83;;;5.30;80.70;;;;;;5090408;28;20184;-79
2022/04/10 05:12:34;;;;;;;15.77;8.07;;;5.40;80.70;;;;;;5087385;28;20172;-88
2022/04/10 05:15:00;;;;;;;14.00;7.57;;;5.50;79.10;;;;;;5074496;28;20559;-81
2022/04/10 05:17:28;;;;;;;11.83;6.67;;;5.40;78.60;;;;;;5077225;28;20176;-78
2022/04/10 05:19:53;;;;;;;11.90;7.03;;;5.50;79.70;;;;;;5079255;28;20165;-78
2022/04/10 05:22:20;;;;;;;11.47;7.07;;;5.50;79.80;;;;;;5059899;28;20172;-80
2022/04/10 05:24:46;;;;;;;13.97;8.67;;;5.50;78.90;;;;;;5072272;28;20165;-76
2022/04/10 05:27:11;;;;;;;13.00;7.37;;;5.60;79.30;;;;;;5073398;28;20216;-77
2022/04/10 05:29:40;;;;;;;14.73;7.37;;;5.50;79.90;;;;;;5071451;28;20246;-80
2022/04/10 05:32:16;;;;;;;11.83;7.13;;;5.60;79.20;;;;;;5072041;28;20184;-77
2022/04/10 05:34:43;;;;;;;11.90;7.37;;;5.60;78.70;;;;;;5073876;28;20161;-84
2022/04/10 05:37:26;;;;;;;17.17;7.07;;;5.60;79.20;;;;;;5068042;28;20157;-88
2022/04/10 05:39:52;;;;;;;13.10;7.80;;;5.60;79.40;;;;;;5070445;28;20187;-81
2022/04/10 05:42:17;;;;;;;13.10;6.77;;;5.60;79.30;;;;;;5076408;28;20165;-79
2022/04/10 05:44:48;;;;;;;12.53;7.40;;;5.60;79.80;;;;;;5067931;28;20184;-80
2022/04/10 05:47:19;;;;;;;11.47;7.43;;;5.70;79.60;;;;;;5061003;28;20197;-84
2022/04/10 05:49:44;;;;;;;12.33;7.33;;;5.70;78.30;;;;;;5057875;28;20525;-85
2022/04/10 05:52:10;;;;;;;12.63;7.20;;;5.70;77.20;;;;;;5057801;28;20181;-80
2022/04/10 05:54:37;;;;;;;15.43;8.00;;;5.60;77.30;;;;;;5057871;28;20173;-79
2022/04/10 05:57:03;;;;;;;10.87;7.17;;;5.70;79.70;;;;;;5058198;28;20641;-82
2022/04/10 05:59:29;;;;;;;15.07;7.80;;;5.60;80.30;;;;;;5057646;28;20169;-88
2022/04/10 06:01:55;;;;;;;12.50;7.67;;;5.50;79.20;;;;;;5058033;28;20180;-81
2022/04/10 06:04:20;;;;;;;13.03;7.60;;;5.60;80.00;;;;;;5059738;28;20165;-89
2022/04/10 06:06:46;;;;;;;13.33;7.47;;;5.60;79.80;;;;;;5057695;28;20200;-89
2022/04/10 06:09:12;;;;;;;13.13;7.37;;;5.60;80.00;;;;;;5057452;28;20649;-82
2022/04/10 06:11:37;;;;;;;9.77;7.67;;;5.70;80.40;;;;;;5057674;28;20165;-79
2022/04/10 06:14:03;;;;;;;11.63;6.60;;;5.70;79.40;;;;;;5057189;28;20224;-79
2022/04/10 06:16:30;;;;;;;14.67;7.67;;;5.70;78.70;;;;;;5057753;28;20227;-87
2022/04/10 06:18:55;;;;;;;13.33;7.57;;;5.70;79.20;;;;;;5058312;28;20164;-88
2022/04/10 06:21:22;;;;;;;10.23;6.73;;;5.70;79.40;;;;;;5057846;28;20227;-87
2022/04/10 06:23:48;;;;;;;14.50;7.23;;;5.70;79.70;;;;;;5059610;28;20256;-86
2022/04/10 06:26:13;;;;;;;13.77;7.60;;;5.80;78.80;;;;;;5058269;28;20625;-84
2022/04/10 06:28:39;;;;;;;13.23;7.40;;;5.80;78.30;;;;;;5072970;28;20165;-77
2022/04/10 06:31:10;;;;;;;13.37;7.80;;;5.80;78.50;;;;;;5064758;28;20173;-80
2022/04/10 06:33:36;;;;;;;14.33;7.50;;;5.90;78.60;;;;;;5070134;28;20172;-80
2022/04/10 06:36:02;;;;;;;16.43;8.20;;;6.10;78.70;;;;;;5065759;28;20578;-80
2022/04/10 06:38:27;;;;;;;11.77;7.43;;;6.20;78.10;;;;;;5059120;28;20192;-77
2022/04/10 06:40:53;;;;;;;12.73;8.00;;;6.40;75.20;;;;;;5058640;28;20231;-77
2022/04/10 06:43:20;;;;;;;11.97;7.70;;;6.30;72.70;;;;;;5059452;28;20537;-88
2022/04/10 06:45:47;;;;;;;13.60;7.57;;;6.30;72.00;;;;;;5057824;28;20296;-90
2022/04/10 06:48:19;;;;;;;11.43;7.17;;;6.40;71.10;;;;;;5058524;28;20176;-82
2022/04/10 06:50:46;;;;;;;14.67;7.80;;;6.40;70.80;;;;;;5058198;28;20153;-88
2022/04/10 06:53:12;;;;;;;12.17;7.53;;;6.60;70.60;;;;;;5057751;28;20161;-89
2022/04/10 06:55:37;;;;;;;13.43;8.00;;;6.80;68.40;;;;;;5058294;28;20535;-85
2022/04/10 06:58:03;;;;;;;16.13;7.93;;;7.00;64.60;;;;;;5057809;28;20248;-88
2022/04/10 07:00:28;;;;;;;14.47;8.27;;;7.10;59.60;;;;;;5058400;28;20169;-85
2022/04/10 07:02:54;;;;;;;12.53;8.20;;;7.10;58.50;;;;;;5058228;28;20514;-83
2022/04/10 07:05:20;;;;;;;13.97;8.97;;;7.10;57.20;;;;;;5041572;28;20622;-90
2022/04/10 07:07:45;;;;;;;12.30;7.80;;;7.00;58.90;;;;;;5061425;28;20173;-89
2022/04/10 07:10:11;;;;;;;13.20;8.47;;;7.20;56.80;;;;;;5062979;28;20168;-89
2022/04/10 07:12:37;;;;;;;11.60;8.07;;;7.30;54.40;;;;;;5072699;28;20173;-84
2022/04/10 07:15:03;;;;;;;15.47;8.53;;;7.40;51.70;;;;;;5075692;28;20173;-77
2022/04/10 07:17:29;;;;;;;13.40;8.60;;;7.40;50.70;;;;;;5077884;28;20290;-84
2022/04/10 07:19:55;;;;;;;11.87;7.63;;;7.30;52.60;;;;;;5076559;28;20180;-77
2022/04/10 07:25:14;;;;;;;15.30;9.00;;;7.20;58.90;;;;;;5084092;28;20206;-89
2022/04/10 07:27:41;;;;;;;14.57;8.70;;;7.40;57.10;;;;;;5078472;28;20172;-85
2022/04/10 07:30:07;;;;;;;16.43;8.93;;;7.40;58.10;;;;;;5082506;28;20164;-81
2022/04/10 07:32:33;;;;;;;13.30;8.80;;;7.30;58.90;;;;;;5093994;28;20179;-79
2022/04/10 07:35:04;;;;;;;21.33;9.77;;;7.40;59.20;;;;;;5094275;28;20203;-78
2022/04/10 07:41:05;;;;;;;14.73;9.13;;;7.50;59.30;;;;;;5088352;28;20199;-77
2022/04/10 07:43:31;;;;;;;12.30;8.53;;;7.70;54.70;;;;;;5081580;28;20692;-91
2022/04/10 07:48:42;;;;;;;14.43;8.57;;;8.00;55.70;;;;;;5095822;28;20171;-87
2022/04/10 07:51:08;;;;;;;14.63;9.00;;;8.10;52.60;;;;;;5093775;28;20165;-79
2022/04/10 07:53:37;;;;;;;15.27;8.77;;;8.30;49.40;;;;;;5066313;28;20168;-87
2022/04/10 07:56:03;;;;;;;16.10;9.10;;;8.20;48.40;;;;;;5087044;28;20171;-80
2022/04/10 07:58:29;;;;;;;15.17;9.73;;;8.20;48.40;;;;;;5072393;28;20200;-78
2022/04/10 08:01:14;;;;;;;15.10;8.97;;;8.30;45.40;;;;;;5084898;28;20156;-81
2022/04/10 08:03:40;;;;;;;14.53;9.60;;;8.30;45.70;;;;;;5083648;28;20254;-79
2022/04/10 08:06:05;;;;;;;12.20;8.87;;;8.50;45.50;;;;;;5083809;28;20603;-86
2022/04/10 08:08:32;;;;;;;14.47;9.47;;;8.60;44.40;;;;;;5086608;28;20156;-84
2022/04/10 08:10:59;;;;;;;15.40;9.50;;;8.70;44.70;;;;;;5079874;28;20558;-87
2022/04/10 08:13:25;;;;;;;13.27;8.33;;;8.70;42.90;;;;;;5058961;28;20612;-88
2022/04/10 08:15:50;;;;;;;16.17;9.43;;;8.70;42.20;;;;;;5077011;28;20172;-91
2022/04/10 08:18:17;;;;;;;17.30;8.90;;;8.80;42.50;;;;;;5076601;28;20156;-89
2022/04/10 08:20:43;;;;;;;12.57;9.30;;;9.00;39.60;;;;;;5078326;28;20168;-86
2022/04/10 08:23:08;;;;;;;15.13;9.33;;;9.20;37.60;;;;;;5076773;28;20232;-84
2022/04/10 08:25:34;;;;;;;13.77;9.27;;;9.20;32.20;;;;;;5078850;28;20252;-80
2022/04/10 08:28:00;;;;;;;12.80;9.20;;;9.30;29.60;;;;;;5075625;28;20168;-87
2022/04/10 08:30:26;;;;;;;15.10;9.77;;;9.50;25.70;;;;;;5058238;28;20179;-85
2022/04/10 08:32:52;;;;;;;11.87;8.87;;;9.70;23.70;;;;;;5075701;28;20691;-79
2022/04/10 08:35:19;;;;;;;16.30;9.10;;;9.90;18.20;;;;;;5075630;28;20172;-85
2022/04/10 08:37:45;;;;;;;13.73;9.30;;;10.10;15.70;;;;;;5076753;28;20191;-90
2022/04/10 08:40:11;;;;;;;13.30;8.83;;;10.00;11.90;;;;;;5075702;28;20179;-86
2022/04/10 08:42:37;;;;;;;11.30;8.70;;;10.30;7.50;;;;;;5057829;28;20183;-86
2022/04/10 08:45:05;;;;;;;11.77;7.77;;;10.40;1.70;;;;;;5075571;28;20195;-90
2022/04/10 08:47:31;;;;;;;14.30;8.27;;;10.20;1.00;;;;;;5075733;28;20235;-87
2022/04/10 08:50:00;;;;;;;12.87;8.17;;;10.20;1.00;;;;;;5075670;28;20164;-87
2022/04/10 08:52:26;;;;;;;13.07;9.03;;;10.50;1.00;;;;;;5062240;28;20255;-88
2022/04/10 08:54:52;;;;;;;13.43;8.03;;;10.50;1.00;;;;;;5055413;28;20169;-89
2022/04/10 08:57:18;;;;;;;11.70;7.63;;;10.60;1.00;;;;;;5056201;28;20555;-90
2022/04/10 08:59:44;;;;;;;11.53;8.37;;;10.60;1.00;;;;;;5059707;28;20230;-84
2022/04/10 09:02:11;;;;;;;10.40;7.10;;;10.60;1.00;;;;;;5060091;28;20242;-89
2022/04/10 09:04:40;;;;;;;10.97;6.23;;;10.60;1.00;;;;;;5052063;28;20188;-80
2022/04/10 09:07:10;;;;;;;11.43;6.47;;;10.70;1.00;;;;;;5073761;28;20208;-84
2022/04/10 09:09:41;;;;;;;9.20;5.43;;;10.70;1.00;;;;;;5074582;28;20180;-85
2022/04/10 09:12:08;;;;;;;12.10;6.17;;;10.90;1.00;;;;;;5075139;28;20172;-88
2022/04/10 09:14:39;;;;;;;9.50;4.87;;;11.10;1.00;;;;;;5062767;28;20201;-88
2022/04/10 09:17:15;;;;;;;6.97;3.67;;;11.40;1.00;;;;;;5062361;28;20579;-85
2022/04/10 09:19:47;;;;;;;5.80;3.67;;;11.60;1.00;;;;;;5065430;28;20179;-79
2022/04/10 09:22:28;;;;;;;12.23;4.97;;;11.60;1.00;;;;;;5087728;28;20183;-81
2022/04/10 09:25:02;;;;;;;8.97;4.97;;;11.70;1.00;;;;;;5082627;28;20157;-79
2022/04/10 09:27:32;;;;;;;8.17;4.33;;;11.30;99.90;;;;;;5082439;28;20204;-80
2022/04/10 09:29:58;;;;;;;8.87;5.13;;;11.20;99.90;;;;;;5080945;28;20152;-89
2022/04/10 09:32:45;;;;;;;9.70;5.33;;;11.10;99.90;;;;;;5082590;28;20175;-83
2022/04/10 09:35:18;;;;;;;7.97;5.33;;;10.80;1.00;;;;;;5093767;28;20243;-88
2022/04/10 09:37:50;;;;;;;8.40;4.40;;;10.90;1.00;;;;;;5075398;28;20186;-88
2022/04/10 09:40:30;;;;;;;7.37;5.17;;;11.20;99.90;;;;;;5072005;28;20180;-88
2022/04/10 09:42:57;;;;;;;12.90;5.37;;;11.50;1.00;;;;;;5095434;28;20144;-79
2022/04/10 09:45:45;;;;;;;7.20;4.33;;;11.40;27.20;;;;;;5091988;28;20168;-89
2022/04/10 09:48:19;;;;;;;7.07;4.20;;;11.60;99.90;;;;;;5081277;28;20165;-88
2022/04/10 09:50:47;;;;;;;6.37;4.13;;;11.60;99.90;;;;;;5065039;28;20644;-88
2022/04/10 09:53:13;;;;;;;8.20;4.63;;;11.70;99.90;;;;;;5087074;28;20594;-86
2022/04/10 09:55:40;;;;;;;9.33;4.60;;;11.80;1.00;;;;;;5097696;28;20171;-82
2022/04/10 09:58:09;;;;;;;9.00;5.00;;;11.50;94.00;;;;;;5096961;28;20161;-79
2022/04/10 10:00:44;;;;;;;9.27;3.97;;;11.30;1.00;;;;;;5097923;28;20157;-80
2022/04/10 10:03:10;;;;;;;7.77;4.87;;;11.50;1.00;;;;;;5097848;28;20144;-83
2022/04/10 10:05:40;;;;;;;7.77;4.50;;;11.70;1.00;;;;;;5072942;28;20293;-80
2022/04/10 10:08:07;;;;;;;8.03;4.67;;;11.70;1.00;;;;;;5094649;28;20190;-82
2022/04/10 10:11:33;;;;;;;7.43;4.63;;;11.80;99.90;;;;;;5094223;28;20216;-81
2022/04/10 10:14:03;;;;;;;8.07;4.27;;;12.00;1.00;;;;;;5091444;28;20188;-85
2022/04/10 10:16:34;;;;;;;8.13;4.37;;;12.10;26.00;;;;;;5072837;28;20200;-90
2022/04/10 10:19:02;;;;;;;5.77;3.87;;;11.90;99.90;;;;;;5084466;28;20651;-90
2022/04/10 10:21:29;;;;;;;9.00;4.20;;;12.20;1.00;;;;;;5062620;28;20193;-79
2022/04/10 10:23:58;;;;;;;6.53;3.60;;;12.50;1.00;;;;;;5061063;28;20625;-88
2022/04/10 10:26:32;;;;;;;7.53;5.30;;;12.90;99.90;;;;;;5061193;28;20200;-86
2022/04/10 10:29:39;;;;;;;8.67;4.57;;;13.20;99.90;;;;;;5058975;28;20223;-81
2022/04/10 10:32:27;;;;;;;8.03;4.40;;;13.40;37.90;;;;;;5058753;28;20252;-87
2022/04/10 10:34:53;;;;;;;9.87;4.93;;;13.30;1.00;;;;;;5058862;28;20579;-89
2022/04/10 10:37:30;;;;;;;10.23;4.50;;;13.30;3.90;;;;;;5047115;28;20168;-78
2022/04/10 10:39:58;;;;;;;9.20;4.43;;;13.20;52.60;;;;;;5063117;28;20159;-85
2022/04/10 10:42:24;;;;;;;7.37;4.40;;;13.10;1.00;;;;;;5069332;28;20160;-80
2022/04/10 10:44:57;;;;;;;8.53;4.40;;;13.10;1.00;;;;;;5077342;28;20185;-79
2022/04/10 10:47:31;;;;;;;8.90;4.43;;;13.00;99.90;;;;;;5063900;28;20216;-77
2022/04/10 10:49:57;;;;;;;9.37;4.67;;;13.00;1.00;;;;;;5059221;28;20164;-82
2022/04/10 10:52:25;;;;;;;8.10;4.10;;;13.10;90.80;;;;;;5048908;28;20272;-83
2022/04/10 10:54:58;;;;;;;8.57;4.40;;;13.20;99.90;;;;;;5079063;28;20178;-79
2022/04/10 10:57:37;;;;;;;6.57;4.03;;;13.30;99.90;;;;;;5061483;28;20173;-88
2022/04/10 11:00:18;;;;;;;9.73;4.27;;;13.40;1.00;;;;;;5079572;28;20164;-89
2022/04/10 11:02:54;;;;;;;4.83;3.10;;;12.90;1.00;;;;;;5079758;28;20169;-88
2022/04/10 11:05:33;;;;;;;5.90;3.20;;;12.90;99.90;;;;;;5078860;28;20187;-89
2022/04/10 11:08:05;;;;;;;6.80;2.90;;;12.50;99.90;;;;;;5081076;28;20160;-81
2022/04/10 11:10:34;;;;;;;5.87;3.10;;;12.30;99.90;;;;;;5080279;28;20164;-85
2022/04/10 11:13:05;;;;;;;8.97;3.63;;;12.10;99.90;;;;;;5080406;28;20196;-84
2022/04/10 11:15:47;;;;;;;5.63;3.00;;;12.30;1.00;;;;;;5086126;28;20157;-79
2022/04/10 11:18:36;;;;;;;6.97;3.33;;;12.40;1.00;;;;;;5092697;28;20171;-81
2022/04/10 11:21:21;;;;;;;6.93;3.17;;;12.70;2.90;;;;;;5088598;28;20209;-82
2022/04/10 11:23:48;;;;;;;5.40;3.63;;;13.10;99.90;;;;;;5084790;28;20172;-87
2022/04/10 11:26:24;;;;;;;5.57;3.23;;;13.40;99.90;;;;;;5086555;28;20212;-82
2022/04/10 11:29:07;;;;;;;5.93;3.13;;;13.70;99.90;;;;;;5085713;28;20616;-79
2022/04/10 11:31:44;;;;;;;6.00;3.27;;;13.80;1.00;;;;;;5090818;28;20178;-78
2022/04/10 11:34:18;;;;;;;5.57;3.00;;;14.10;1.00;;;;;;5085215;28;20152;-79
2022/04/10 11:36:59;;;;;;;6.50;2.77;;;14.10;99.90;;;;;;5079507;28;20167;-88
2022/04/10 11:39:29;;;;;;;6.57;3.70;;;13.80;1.00;;;;;;5067893;28;20176;-83
2022/04/10 11:42:03;;;;;;;7.83;3.80;;;13.40;99.90;;;;;;5081063;28;20176;-89
2022/04/10 11:44:31;;;;;;;4.80;2.70;;;13.30;99.90;;;;;;5083500;28;20192;-83
2022/04/10 11:47:02;;;;;;;5.60;3.20;;;13.30;99.90;;;;;;5071465;28;20216;-79
2022/04/10 11:49:28;;;;;;;4.80;2.80;;;13.20;99.90;;;;;;5064431;28;20174;-85
2022/04/10 11:52:03;;;;;;;8.77;3.10;;;12.90;99.90;;;;;;5058205;28;20165;-85
2022/04/10 11:54:33;;;;;;;5.03;2.80;;;13.00;99.90;;;;;;5057633;28;20257;-90
2022/04/10 11:57:03;;;;;;;5.73;2.77;;;12.70;99.90;;;;;;5068871;28;20187;-80
2022/04/10 11:59:38;;;;;;;5.40;3.03;;;12.50;1.00;;;;;;5071823;28;20189;-88
2022/04/10 12:02:09;;;;;;;5.63;3.07;;;12.40;1.00;;;;;;5073441;28;20168;-79
2022/04/10 12:04:52;;;;;;;6.13;2.90;;;12.60;1.00;;;;;;5047617;28;20246;-88
2022/04/10 12:07:30;;;;;;;5.43;2.80;;;12.30;1.00;;;;;;5073992;28;20210;-80
2022/04/10 12:10:02;;;;;;;6.13;3.43;;;12.30;79.70;;;;;;5062058;28;20204;-88
2022/04/10 12:12:36;;;;;;;5.80;2.77;;;12.40;99.90;;;;;;5057641;28;20173;-84
2022/04/10 12:15:03;;;;;;;4.83;3.20;;;12.70;99.90;;;;;;5056086;28;20219;-85
2022/04/10 12:17:28;;;;;;;7.27;4.00;;;12.90;1.00;;;;;;5055867;28;20517;-84
2022/04/10 12:19:55;;;;;;;6.00;3.33;;;13.20;1.00;;;;;;5056639;28;20215;-84
2022/04/10 12:22:24;;;;;;;5.57;3.37;;;13.20;1.00;;;;;;5056021;28;20177;-88
2022/04/10 12:24:58;;;;;;;6.13;3.50;;;13.10;1.00;;;;;;5056747;28;20239;-86
2022/04/10 12:27:24;;;;;;;7.33;3.63;;;13.10;1.00;;;;;;5065799;28;20204;-88
2022/04/10 12:29:50;;;;;;;5.73;3.57;;;12.80;1.00;;;;;;5065937;28;20169;-80
2022/04/10 12:32:16;;;;;;;6.40;2.80;;;12.90;90.70;;;;;;5061837;28;20172;-87
2022/04/10 12:34:42;;;;;;;6.83;3.20;;;13.20;99.90;;;;;;5056985;28;20166;-87
2022/04/10 12:37:09;;;;;;;6.60;3.27;;;13.70;1.00;;;;;;5061812;28;20189;-79
2022/04/10 12:39:37;;;;;;;6.77;3.33;;;14.00;1.00;;;;;;5052738;28;20236;-81
2022/04/10 12:42:07;;;;;;;5.10;2.77;;;14.20;99.90;;;;;;5069941;28;20169;-79
2022/04/10 12:44:37;;;;;;;7.73;3.70;;;14.30;99.90;;;;;;5069218;28;20186;-79
2022/04/10 12:47:07;;;;;;;6.07;3.07;;;14.30;99.90;;;;;;5061294;28;20209;-87
2022/04/10 12:49:34;;;;;;;5.10;2.83;;;14.20;1.00;;;;;;5062529;28;20245;-87
2022/04/10 12:52:03;;;;;;;7.27;3.00;;;14.30;30.90;;;;;;5065570;28;20236;-87
2022/04/10 12:54:37;;;;;;;4.43;2.50;;;14.30;1.00;;;;;;5066624;28;20166;-79
2022/04/10 12:57:08;;;;;;;5.73;2.77;;;14.50;1.00;;;;;;5070615;28;20209;-85
2022/04/10 12:59:40;;;;;;;4.40;2.90;;;14.60;1.00;;;;;;5068199;28;20166;-86
2022/04/10 13:02:24;;;;;;;7.60;2.87;;;14.60;1.00;;;;;;5043291;28;20260;-84
2022/04/10 13:05:00;;;;;;;5.47;3.23;;;14.70;1.00;;;;;;5057112;28;20218;-79
2022/04/10 13:07:28;;;;;;;6.10;2.97;;;14.60;1.00;;;;;;5038639;28;20233;-80